createdAt,value
2018-03-25T00:01:12.800Z,25.37
2018-03-25T00:03:41.066Z,20.70
2018-03-25T00:06:08.546Z,26.07
2018-03-25T00:08:36.795Z,24.33
2018-03-25T00:11:05.073Z,24.97
2018-03-25T00:13:33.468Z,25.13
2018-03-25T00:16:01.735Z,23.10
2018-03-25T00:18:30.002Z,22.63
2018-03-25T00:20:58.558Z,24.83
2018-03-25T00:23:26.081Z,24.80
2018-03-25T00:25:53.560Z,25.27
2018-03-25T00:28:21.046Z,22.77
2018-03-25T00:30:48.536Z,27.57
2018-03-25T00:33:16.046Z,26.10
2018-03-25T00:35:43.515Z,28.53
2018-03-25T00:38:10.991Z,28.73
2018-03-25T00:40:38.464Z,29.90
2018-03-25T00:43:05.947Z,32.27
2018-03-25T00:45:33.431Z,26.43
2018-03-25T00:48:00.913Z,28.33
2018-03-25T00:50:29.192Z,27.50
2018-03-25T00:52:57.433Z,24.60
2018-03-25T00:55:25.696Z,25.60
2018-03-25T00:57:53.192Z,29.67
2018-03-25T01:00:21.431Z,29.80
2018-03-25T01:02:48.927Z,29.23
2018-03-25T01:05:16.485Z,29.20
2018-03-25T01:07:44.761Z,33.43
2018-03-25T01:10:12.303Z,28.93
2018-03-25T01:12:40.542Z,32.07
2018-03-25T01:15:08.048Z,32.63
2018-03-25T01:17:36.290Z,32.13
2018-03-25T01:20:03.823Z,28.43
2018-03-25T01:22:31.346Z,27.97
2018-03-25T01:24:58.850Z,28.60
2018-03-25T01:27:26.366Z,26.83
2018-03-25T01:29:53.836Z,34.43
2018-03-25T01:32:21.340Z,30.23
2018-03-25T01:34:48.828Z,27.53
2018-03-25T01:37:16.323Z,29.40
2018-03-25T01:39:43.780Z,27.23
2018-03-25T01:42:11.271Z,28.93
2018-03-25T01:44:38.731Z,28.00
2018-03-25T01:47:06.988Z,29.23
2018-03-25T01:49:34.448Z,28.53
2018-03-25T01:52:01.924Z,29.03
2018-03-25T01:54:30.172Z,26.00
2018-03-25T01:56:57.664Z,29.53
2018-03-25T01:59:25.154Z,27.70
2018-03-25T02:01:52.610Z,30.77
2018-03-25T02:04:20.086Z,29.17
2018-03-25T02:06:47.558Z,28.63
2018-03-25T02:09:15.804Z,25.03
2018-03-25T02:11:43.264Z,30.23
2018-03-25T02:14:10.845Z,29.00
2018-03-25T02:16:38.347Z,26.40
2018-03-25T02:19:05.842Z,28.33
2018-03-25T02:21:33.340Z,23.30
2018-03-25T02:24:01.608Z,29.23
2018-03-25T02:26:29.837Z,28.97
2018-03-25T02:28:57.337Z,26.07
2018-03-25T02:31:25.566Z,25.27
2018-03-25T02:33:53.056Z,25.57
2018-03-25T02:36:20.526Z,30.63
2018-03-25T02:38:48.014Z,28.67
2018-03-25T02:41:15.541Z,27.10
2018-03-25T02:43:43.807Z,27.10
2018-03-25T02:46:12.064Z,26.10
2018-03-25T02:48:39.546Z,26.70
2018-03-25T02:51:09.514Z,23.00
2018-03-25T02:53:36.980Z,27.27
2018-03-25T02:56:04.458Z,27.00
2018-03-25T02:58:31.919Z,27.87
2018-03-25T03:01:00.172Z,29.50
2018-03-25T03:03:28.427Z,28.63
2018-03-25T03:05:55.912Z,27.57
2018-03-25T03:08:23.461Z,29.47
2018-03-25T03:10:50.950Z,31.77
2018-03-25T03:13:18.430Z,29.60
2018-03-25T03:15:45.950Z,26.73
2018-03-25T03:18:13.505Z,38.97
2018-03-25T03:20:41.751Z,30.37
2018-03-25T03:23:09.232Z,30.47
2018-03-25T03:25:36.815Z,28.83
2018-03-25T03:28:05.039Z,30.33
2018-03-25T03:30:32.524Z,30.67
2018-03-25T03:33:00.005Z,30.47
2018-03-25T03:35:27.481Z,29.03
2018-03-25T03:37:54.962Z,30.57
2018-03-25T03:40:22.503Z,25.57
2018-03-25T03:42:51.366Z,27.10
2018-03-25T03:45:21.499Z,30.37
2018-03-25T03:47:48.993Z,23.30
2018-03-25T03:50:16.472Z,28.90
2018-03-25T03:52:44.708Z,26.83
2018-03-25T03:55:12.241Z,26.43
2018-03-25T03:57:39.726Z,28.07
2018-03-25T04:00:07.199Z,27.33
2018-03-25T04:02:34.945Z,31.20
2018-03-25T04:05:02.433Z,26.40
2018-03-25T04:07:29.918Z,26.73
2018-03-25T04:09:57.403Z,27.13
2018-03-25T04:12:24.859Z,24.70
2018-03-25T04:14:52.352Z,30.43
2018-03-25T04:17:19.845Z,32.47
2018-03-25T04:19:47.347Z,26.10
2018-03-25T04:22:14.826Z,28.03
2018-03-25T04:24:42.319Z,23.57
2018-03-25T04:27:09.804Z,23.87
2018-03-25T04:29:37.278Z,28.87
2018-03-25T04:32:04.786Z,28.13
2018-03-25T04:34:32.268Z,25.33
2018-03-25T04:36:59.736Z,25.50
2018-03-25T04:39:27.285Z,22.47
2018-03-25T04:41:54.764Z,26.20
2018-03-25T04:44:22.269Z,26.97
2018-03-25T04:46:49.768Z,23.27
2018-03-25T04:49:17.278Z,20.37
2018-03-25T04:51:44.751Z,24.80
2018-03-25T04:54:12.232Z,25.57
2018-03-25T04:56:40.572Z,25.83
2018-03-25T04:59:08.039Z,23.23
2018-03-25T05:01:35.520Z,25.33
2018-03-25T05:04:03.000Z,23.50
2018-03-25T05:06:31.322Z,23.40
2018-03-25T05:08:58.818Z,25.80
2018-03-25T05:11:26.314Z,23.93
2018-03-25T05:13:53.773Z,23.30
2018-03-25T05:16:21.260Z,26.63
2018-03-25T05:18:49.319Z,27.93
2018-03-25T05:21:16.799Z,26.90
2018-03-25T05:23:44.270Z,27.87
2018-03-25T05:26:11.761Z,27.03
2018-03-25T05:28:40.040Z,27.43
2018-03-25T05:31:07.511Z,26.93
2018-03-25T05:33:35.000Z,28.70
2018-03-25T05:36:02.478Z,25.73
2018-03-25T05:38:29.970Z,22.90
2018-03-25T05:40:57.461Z,28.70
2018-03-25T05:43:24.951Z,31.27
2018-03-25T05:45:53.785Z,25.13
2018-03-25T05:48:21.271Z,25.57
2018-03-25T05:50:48.750Z,25.40
2018-03-25T05:53:16.250Z,28.37
2018-03-25T05:55:43.715Z,22.97
2018-03-25T05:58:11.211Z,25.67
2018-03-25T06:00:38.696Z,25.23
2018-03-25T06:03:06.271Z,25.10
2018-03-25T06:05:33.776Z,25.33
2018-03-25T06:08:01.248Z,22.97
2018-03-25T06:10:29.501Z,23.33
2018-03-25T06:12:57.332Z,25.50
2018-03-25T06:15:24.842Z,18.20
2018-03-25T06:17:52.315Z,19.77
2018-03-25T06:20:20.582Z,23.57
2018-03-25T06:22:48.865Z,20.10
2018-03-25T06:25:17.139Z,24.27
2018-03-25T06:27:45.387Z,20.50
2018-03-25T06:30:14.432Z,21.33
2018-03-25T06:32:41.943Z,18.73
2018-03-25T06:35:09.499Z,21.17
2018-03-25T06:37:36.953Z,22.33
2018-03-25T06:40:04.439Z,19.87
2018-03-25T06:42:32.692Z,20.00
2018-03-25T06:45:00.939Z,19.57
2018-03-25T06:47:28.443Z,20.80
2018-03-25T06:49:55.894Z,22.40
2018-03-25T06:52:23.408Z,17.33
2018-03-25T06:54:50.882Z,20.07
2018-03-25T06:57:18.370Z,21.47
2018-03-25T06:59:45.845Z,17.87
2018-03-25T07:02:13.326Z,18.13
2018-03-25T07:04:40.796Z,19.00
2018-03-25T07:07:09.806Z,18.97
2018-03-25T07:09:38.060Z,14.87
2018-03-25T07:12:05.660Z,18.73
2018-03-25T07:14:33.913Z,18.03
2018-03-25T07:17:01.381Z,17.77
2018-03-25T07:19:29.697Z,18.17
2018-03-25T07:21:57.159Z,17.00
2018-03-25T07:24:24.648Z,17.37
2018-03-25T07:26:52.577Z,18.23
2018-03-25T07:29:20.146Z,16.07
2018-03-25T07:31:47.627Z,16.33
2018-03-25T07:34:15.182Z,19.43
2018-03-25T07:36:42.658Z,18.43
2018-03-25T07:39:11.027Z,17.57
2018-03-25T07:41:39.344Z,22.10
2018-03-25T07:44:06.842Z,19.70
2018-03-25T07:46:34.311Z,19.17
2018-03-25T07:49:02.575Z,17.87
2018-03-25T07:51:30.067Z,18.37
2018-03-25T07:53:57.568Z,18.07
2018-03-25T07:56:25.099Z,18.87
2018-03-25T07:58:52.583Z,17.43
2018-03-25T08:01:20.107Z,19.27
2018-03-25T08:03:47.609Z,19.80
2018-03-25T08:06:15.076Z,18.37
2018-03-25T08:08:42.568Z,20.47
2018-03-25T08:11:10.123Z,21.20
2018-03-25T08:13:37.595Z,18.37
2018-03-25T08:16:05.087Z,22.10
2018-03-25T08:18:32.556Z,17.97
2018-03-25T08:21:00.052Z,17.43
2018-03-25T08:23:27.553Z,19.97
2018-03-25T08:25:56.611Z,18.03
2018-03-25T08:28:24.100Z,19.50
2018-03-25T08:30:51.613Z,19.30
2018-03-25T08:33:19.098Z,18.87
2018-03-25T08:35:46.600Z,22.10
2018-03-25T08:38:14.848Z,18.20
2018-03-25T08:40:42.316Z,22.23
2018-03-25T08:43:09.816Z,20.60
2018-03-25T08:45:37.330Z,18.57
2018-03-25T08:48:05.571Z,19.27
2018-03-25T08:50:33.084Z,19.27
2018-03-25T08:53:01.337Z,17.77
2018-03-25T08:55:28.842Z,18.90
2018-03-25T08:57:56.323Z,19.57
2018-03-25T09:00:23.792Z,22.93
2018-03-25T09:02:51.305Z,20.07
2018-03-25T09:05:18.808Z,19.50
2018-03-25T09:07:46.307Z,18.60
2018-03-25T09:10:13.805Z,20.53
2018-03-25T09:12:41.312Z,23.77
2018-03-25T09:15:08.799Z,20.70
2018-03-25T09:17:36.278Z,22.13
2018-03-25T09:20:04.011Z,40.57
2018-03-25T09:22:31.497Z,23.00
2018-03-25T09:24:58.976Z,21.30
2018-03-25T09:27:27.237Z,22.33
2018-03-25T09:29:54.714Z,20.53
2018-03-25T09:32:22.980Z,22.80
2018-03-25T09:34:50.485Z,24.03
2018-03-25T09:37:18.061Z,24.73
2018-03-25T09:39:45.536Z,21.37
2018-03-25T09:42:13.508Z,23.10
2018-03-25T09:44:40.996Z,22.90
2018-03-25T09:47:08.458Z,23.73
2018-03-25T09:49:35.954Z,24.07
2018-03-25T09:52:03.427Z,25.10
2018-03-25T09:54:31.018Z,25.43
2018-03-25T09:56:58.515Z,24.77
2018-03-25T09:59:26.019Z,24.37
2018-03-25T10:02:00.029Z,24.83
2018-03-25T10:04:28.382Z,27.07
2018-03-25T10:06:56.719Z,27.07
2018-03-25T10:09:24.220Z,21.80
2018-03-25T10:11:51.694Z,27.50
2018-03-25T10:14:19.967Z,27.70
2018-03-25T10:16:48.286Z,26.27
2018-03-25T10:19:16.503Z,25.80
2018-03-25T10:21:43.989Z,25.63
2018-03-25T10:24:11.479Z,26.50
2018-03-25T11:37:52.998Z,25.67
2018-03-25T11:40:20.494Z,24.57
2018-03-25T11:42:49.408Z,25.53
2018-03-25T11:45:18.173Z,22.67
2018-03-25T11:47:45.654Z,21.83
2018-03-25T11:50:14.255Z,22.87
2018-03-25T11:52:41.778Z,23.37
2018-03-25T11:55:10.025Z,23.10
2018-03-25T11:57:37.561Z,22.57
2018-03-25T12:00:05.060Z,22.90
2018-03-25T12:02:33.792Z,21.57
2018-03-25T12:05:01.629Z,23.30
2018-03-25T12:07:30.007Z,22.60
2018-03-25T12:09:58.262Z,25.73
2018-03-25T12:12:26.517Z,24.33
2018-03-25T12:14:54.814Z,20.93
2018-03-25T12:17:23.074Z,24.23
2018-03-25T12:19:50.552Z,22.70
2018-03-25T12:22:18.846Z,23.20
2018-03-25T12:24:46.344Z,22.57
2018-03-25T12:27:13.824Z,21.20
2018-03-25T12:29:41.434Z,26.30
2018-03-25T12:32:08.906Z,21.77
2018-03-25T12:34:36.462Z,24.40
2018-03-25T12:37:03.971Z,20.73
2018-03-25T12:39:32.248Z,21.30
2018-03-25T12:42:00.522Z,22.83
2018-03-25T12:44:28.791Z,25.33
2018-03-25T12:46:57.083Z,24.53
2018-03-25T12:49:24.589Z,20.93
2018-03-25T12:51:52.138Z,23.70
2018-03-25T12:54:19.639Z,19.97
2018-03-25T12:56:47.954Z,21.33
2018-03-25T12:59:15.466Z,24.63
2018-03-25T13:01:43.925Z,20.17
2018-03-25T13:04:11.387Z,19.77
2018-03-25T13:06:38.895Z,21.33
2018-03-25T13:09:06.458Z,20.70
2018-03-25T13:11:33.955Z,22.67
2018-03-25T13:14:01.472Z,18.67
2018-03-25T13:16:28.969Z,23.37
2018-03-25T13:18:56.502Z,23.50
2018-03-25T13:21:24.042Z,24.33
2018-03-25T13:23:51.521Z,22.20
2018-03-25T13:26:19.063Z,21.93
2018-03-25T13:28:46.578Z,22.47
2018-03-25T13:31:14.877Z,22.33
2018-03-25T13:33:42.368Z,21.60
2018-03-25T13:36:10.209Z,21.87
2018-03-25T13:38:38.419Z,22.10
2018-03-25T13:41:06.038Z,20.77
2018-03-25T13:43:33.530Z,22.33
2018-03-25T13:46:00.985Z,23.07
2018-03-25T13:48:28.977Z,21.87
2018-03-25T13:50:57.214Z,23.03
2018-03-25T13:53:24.713Z,26.30
2018-03-25T13:55:52.979Z,24.07
2018-03-25T13:58:20.533Z,22.70
2018-03-25T14:00:48.029Z,22.57
2018-03-25T14:03:15.943Z,26.73
2018-03-25T14:05:43.501Z,24.80
2018-03-25T14:08:10.981Z,21.83
2018-03-25T14:10:39.360Z,23.40
2018-03-25T14:13:07.865Z,23.47
2018-03-25T14:15:35.484Z,26.90
2018-03-25T14:18:02.976Z,22.70
2018-03-25T14:20:30.480Z,20.43
2018-03-25T14:22:58.000Z,20.27
2018-03-25T14:25:25.762Z,22.60
2018-03-25T14:27:53.291Z,21.70
2018-03-25T14:30:21.533Z,23.20
2018-03-25T14:32:49.061Z,24.67
2018-03-25T14:35:16.572Z,26.63
2018-03-25T14:37:44.832Z,23.17
2018-03-25T14:40:13.121Z,24.73
2018-03-25T14:42:42.271Z,23.10
2018-03-25T14:45:09.776Z,23.47
2018-03-25T14:47:38.085Z,24.27
2018-03-25T14:50:05.630Z,23.60
2018-03-25T14:52:33.123Z,27.30
2018-03-25T14:55:00.612Z,26.30
2018-03-25T14:57:28.872Z,25.10
2018-03-25T14:59:56.378Z,23.93
2018-03-25T15:02:23.913Z,23.97
2018-03-25T15:04:51.411Z,25.17
2018-03-25T15:07:18.956Z,28.80
2018-03-25T15:09:46.395Z,29.53
2018-03-25T15:12:13.904Z,25.30
2018-03-25T15:14:41.415Z,29.63
2018-03-25T15:17:08.978Z,30.13
2018-03-25T15:19:37.306Z,26.97
2018-03-25T15:22:04.793Z,28.63
2018-03-25T15:24:32.307Z,26.27
2018-03-25T15:27:01.360Z,27.60
2018-03-25T15:29:28.854Z,24.93
2018-03-25T15:31:56.354Z,28.67
2018-03-25T15:34:24.640Z,27.00
2018-03-25T15:36:52.285Z,25.17
2018-03-25T15:39:20.539Z,24.83
2018-03-25T15:41:48.829Z,20.60
2018-03-25T15:44:17.088Z,20.87
2018-03-25T15:46:45.457Z,23.10
2018-03-25T15:49:13.722Z,23.23
2018-03-25T15:51:41.297Z,22.27
2018-03-25T15:54:08.778Z,23.57
2018-03-25T15:56:36.301Z,22.80
2018-03-25T15:59:03.809Z,23.63
2018-03-25T16:01:31.334Z,23.80
2018-03-25T16:03:59.805Z,24.77
2018-03-25T16:06:29.065Z,27.27
2018-03-25T16:08:56.569Z,26.70
2018-03-25T16:11:24.836Z,24.93
2018-03-25T16:13:53.089Z,27.87
2018-03-25T16:16:21.377Z,26.87
2018-03-25T16:18:48.877Z,25.80
2018-03-25T16:21:16.425Z,25.87
2018-03-25T16:23:43.952Z,26.80
2018-03-25T16:26:11.429Z,26.23
2018-03-25T16:28:39.450Z,29.43
2018-03-25T16:31:06.987Z,28.43
2018-03-25T16:33:34.497Z,30.73
2018-03-25T16:36:01.998Z,31.17
2018-03-25T16:38:29.487Z,28.00
2018-03-25T16:40:57.000Z,30.83
2018-03-25T16:43:24.495Z,30.40
2018-03-25T16:45:53.503Z,29.80
2018-03-25T16:48:20.992Z,29.03
2018-03-25T16:50:48.670Z,26.10
2018-03-25T16:53:16.182Z,28.60
2018-03-25T16:55:43.671Z,29.03
2018-03-25T16:58:11.165Z,29.20
2018-03-25T17:00:38.673Z,29.90
2018-03-25T17:03:06.175Z,31.23
2018-03-25T17:05:33.666Z,31.37
2018-03-25T17:08:01.949Z,30.20
2018-03-25T17:10:30.203Z,30.70
2018-03-25T17:12:57.703Z,34.63
2018-03-25T17:15:25.198Z,30.93
2018-03-25T17:17:52.703Z,29.90
2018-03-25T17:20:20.195Z,28.47
2018-03-25T17:22:47.723Z,32.93
2018-03-25T17:25:15.227Z,29.70
2018-03-25T17:27:42.711Z,32.50
2018-03-25T17:30:10.983Z,33.30
2018-03-25T17:32:39.278Z,31.27
2018-03-25T17:35:06.791Z,35.00
2018-03-25T17:37:34.289Z,34.37
2018-03-25T17:40:01.802Z,31.43
2018-03-25T17:42:29.294Z,33.30
2018-03-25T17:44:57.557Z,31.50
2018-03-25T17:47:25.820Z,32.30
2018-03-25T17:49:53.333Z,35.50
2018-03-25T17:52:20.835Z,34.10
2018-03-25T17:54:48.328Z,36.47
2018-03-25T17:57:15.799Z,35.67
2018-03-25T17:59:43.309Z,35.13
2018-03-25T18:02:10.812Z,34.30
2018-03-25T18:04:38.298Z,38.83
2018-03-25T18:07:05.817Z,34.13
2018-03-25T18:09:33.337Z,37.50
2018-03-25T18:12:00.832Z,36.77
2018-03-25T18:14:28.345Z,36.37
2018-03-25T18:16:55.882Z,35.83
2018-03-25T18:19:23.414Z,38.93
2018-03-25T18:21:51.609Z,38.87
2018-03-25T18:24:19.253Z,35.23
2018-03-25T18:26:46.662Z,38.93
2018-03-25T18:29:14.918Z,31.70
2018-03-25T18:31:42.493Z,33.53
2018-03-25T18:34:10.009Z,33.50
2018-03-25T18:36:37.514Z,33.87
2018-03-25T18:39:05.924Z,34.63
2018-03-25T18:41:33.429Z,35.50
2018-03-25T18:44:00.933Z,34.23
2018-03-25T18:46:28.445Z,33.07
2018-03-25T18:48:56.725Z,37.93
2018-03-25T18:51:25.005Z,35.97
2018-03-25T18:53:53.279Z,33.83
2018-03-25T18:56:22.530Z,33.83
2018-03-25T18:58:50.061Z,33.30
2018-03-25T19:01:17.552Z,37.93
2018-03-25T19:03:45.064Z,37.90
2018-03-25T19:06:12.560Z,36.67
2018-03-25T19:08:40.094Z,36.90
2018-03-25T19:11:07.872Z,36.27
2018-03-25T19:13:35.372Z,36.93
2018-03-25T19:16:03.720Z,32.83
2018-03-25T19:18:31.342Z,31.43
2018-03-25T19:20:58.839Z,34.73
2018-03-25T19:23:26.403Z,34.03
2018-03-25T19:25:53.909Z,32.10
2018-03-25T19:28:21.494Z,39.70
2018-03-25T19:30:49.033Z,40.60
2018-03-25T19:33:16.616Z,38.27
2018-03-25T19:35:44.288Z,36.83
2018-03-25T19:38:11.884Z,35.47
2018-03-25T19:40:40.152Z,35.93
2018-03-25T19:43:08.528Z,32.97
2018-03-25T19:45:36.993Z,35.43
2018-03-25T19:48:04.803Z,35.57
2018-03-25T19:50:32.303Z,34.27
2018-03-25T19:52:59.803Z,34.87
2018-03-25T19:55:27.292Z,36.40
2018-03-25T19:57:55.179Z,36.37
2018-03-25T20:00:22.712Z,35.30
2018-03-25T20:02:50.196Z,34.30
2018-03-25T20:05:17.696Z,38.63
2018-03-25T20:07:45.191Z,37.60
2018-03-25T20:10:12.672Z,34.57
2018-03-25T20:12:40.168Z,34.23
2018-03-25T20:15:07.651Z,37.13
2018-03-25T20:17:35.171Z,40.03
2018-03-25T20:20:02.651Z,36.40
2018-03-25T20:22:30.156Z,38.43
2018-03-25T20:24:58.426Z,38.40
2018-03-25T20:27:25.914Z,38.43
2018-03-25T20:29:53.440Z,35.57
2018-03-25T20:32:20.917Z,35.87
2018-03-25T20:34:49.200Z,34.07
2018-03-25T20:37:16.679Z,37.47
2018-03-25T20:39:44.211Z,36.20
2018-03-25T20:42:12.701Z,37.17
2018-03-25T20:44:40.214Z,36.13
2018-03-25T20:47:07.734Z,37.60
2018-03-25T20:49:35.259Z,35.63
2018-03-25T20:52:02.763Z,37.83
2018-03-25T20:54:30.281Z,35.37
2018-03-25T20:56:57.759Z,35.03
2018-03-25T20:59:25.290Z,37.97
2018-03-25T21:01:52.796Z,36.07
2018-03-25T21:04:20.315Z,35.40
2018-03-25T21:06:47.790Z,36.87
2018-03-25T21:09:15.257Z,33.47
2018-03-25T21:11:42.760Z,34.10
2018-03-25T21:14:11.017Z,37.03
2018-03-25T21:16:38.617Z,43.37
2018-03-25T21:19:06.085Z,41.10
2018-03-25T21:21:33.578Z,36.97
2018-03-25T21:24:01.063Z,37.90
2018-03-25T21:26:29.306Z,41.07
2018-03-25T21:28:56.780Z,40.97
2018-03-25T21:31:26.407Z,42.77
2018-03-25T21:33:53.900Z,38.33
2018-03-25T21:36:21.421Z,40.67
2018-03-25T21:38:49.676Z,38.83
2018-03-25T21:41:17.936Z,40.13
2018-03-25T21:43:45.414Z,38.33
2018-03-25T21:46:12.923Z,40.10
2018-03-25T21:48:40.421Z,38.13
2018-03-25T21:51:08.707Z,41.47
2018-03-25T21:53:36.191Z,39.03
2018-03-25T21:56:03.699Z,40.57
2018-03-25T21:58:31.165Z,41.27
2018-03-25T22:00:59.392Z,37.10
2018-03-25T22:03:26.911Z,37.70
2018-03-25T22:05:55.127Z,39.93
2018-03-25T22:08:22.608Z,43.37
2018-03-25T22:10:50.077Z,37.47
2018-03-25T22:13:18.339Z,39.23
2018-03-25T22:15:45.806Z,38.17
2018-03-25T22:18:14.051Z,41.13
2018-03-25T22:20:41.546Z,40.57
2018-03-25T22:23:09.787Z,42.63
2018-03-25T22:25:37.272Z,40.77
2018-03-25T22:28:05.518Z,42.77
2018-03-25T22:30:33.028Z,41.27
2018-03-25T22:33:00.532Z,39.47
2018-03-25T22:35:28.015Z,34.93
2018-03-25T22:37:56.303Z,42.70
2018-03-25T22:40:23.795Z,40.47
2018-03-25T22:42:51.269Z,40.53
2018-03-25T22:45:18.778Z,38.70
2018-03-25T22:47:46.370Z,38.37
2018-03-25T22:50:13.905Z,40.27
2018-03-25T22:52:41.370Z,36.10
2018-03-25T22:55:08.925Z,39.63
2018-03-25T22:57:36.536Z,44.83
2018-03-25T23:00:04.840Z,44.20
2018-03-25T23:02:32.410Z,41.10
2018-03-25T23:05:00.751Z,39.33
2018-03-25T23:07:29.005Z,40.63
2018-03-25T23:09:56.654Z,44.20
2018-03-25T23:12:24.161Z,43.93
2018-03-25T23:14:51.627Z,41.37
2018-03-25T23:17:19.126Z,46.73
2018-03-25T23:19:46.616Z,44.83
2018-03-25T23:22:14.189Z,44.83
2018-03-25T23:24:41.802Z,41.93
2018-03-25T23:27:09.290Z,43.13
2018-03-25T23:29:38.090Z,38.63
2018-03-25T23:32:05.575Z,42.50
2018-03-25T23:34:33.065Z,42.33
2018-03-25T23:37:00.555Z,47.50
2018-03-25T23:39:28.051Z,42.03
2018-03-25T23:41:55.540Z,43.87
2018-03-25T23:44:23.057Z,40.00
2018-03-25T23:46:50.527Z,41.20
2018-03-25T23:49:18.003Z,41.20
2018-03-25T23:51:45.543Z,38.27
2018-03-25T23:54:13.019Z,42.77
2018-03-25T23:56:40.557Z,44.13
2018-03-25T23:59:08.090Z,44.73
